sensor_id;sensor_type;location;lat;lon;timestamp;pressure;altitude;pressure_sealevel;temperature;humidity
40850;BME280;26571;41.610;25.380;2024-02-15T00:00:36;98556.00;;;9.20;57.68
40850;BME280;26571;41.610;25.380;2024-02-15T00:03:03;98556.81;;;9.21;57.28
40850;BME280;26571;41.610;25.380;2024-02-15T00:05:32;98560.56;;;9.18;57.37
40850;BME280;26571;41.610;25.380;2024-02-15T00:07:57;98559.94;;;9.24;57.82
40850;BME280;26571;41.610;25.380;2024-02-15T00:10:23;98554.38;;;9.27;57.06
40850;BME280;26571;41.610;25.380;2024-02-15T00:12:50;98559.94;;;9.24;57.78
40850;BME280;26571;41.610;25.380;2024-02-15T00:15:16;98566.50;;;9.20;57.47
40850;BME280;26571;41.610;25.380;2024-02-15T00:17:42;98554.03;;;9.22;57.29
40850;BME280;26571;41.610;25.380;2024-02-15T00:20:07;98557.63;;;9.21;57.51
40850;BME280;26571;41.610;25.380;2024-02-15T00:22:35;98589.78;;;9.15;57.89
40850;BME280;26571;41.610;25.380;2024-02-15T00:25:01;98555.28;;;9.10;58.02
40850;BME280;26571;41.610;25.380;2024-02-15T00:27:26;98557.94;;;9.18;57.56
40850;BME280;26571;41.610;25.380;2024-02-15T00:29:52;98543.78;;;9.11;58.09
40850;BME280;26571;41.610;25.380;2024-02-15T00:32:17;98548.72;;;9.14;58.21
40850;BME280;26571;41.610;25.380;2024-02-15T00:34:43;98558.75;;;9.19;57.77
40850;BME280;26571;41.610;25.380;2024-02-15T00:37:08;98561.03;;;9.14;58.07
40850;BME280;26571;41.610;25.380;2024-02-15T00:39:34;98552.69;;;9.18;57.44
40850;BME280;26571;41.610;25.380;2024-02-15T00:42:00;98549.75;;;9.21;56.84
40850;BME280;26571;41.610;25.380;2024-02-15T00:44:28;98552.38;;;9.21;56.67
40850;BME280;26571;41.610;25.380;2024-02-15T00:46:53;98553.72;;;9.25;57.12
40850;BME280;26571;41.610;25.380;2024-02-15T00:49:19;98556.00;;;9.20;57.04
40850;BME280;26571;41.610;25.380;2024-02-15T00:51:48;98559.91;;;9.16;57.17
40850;BME280;26571;41.610;25.380;2024-02-15T00:54:14;98542.50;;;9.15;56.87
40850;BME280;26571;41.610;25.380;2024-02-15T00:56:40;98551.84;;;9.18;56.81
40850;BME280;26571;41.610;25.380;2024-02-15T00:59:05;98558.91;;;9.17;56.98
40850;BME280;26571;41.610;25.380;2024-02-15T01:01:31;98533.50;;;9.00;56.02
40850;BME280;26571;41.610;25.380;2024-02-15T01:03:57;98534.84;;;9.04;56.57
40850;BME280;26571;41.610;25.380;2024-02-15T01:06:23;98560.25;;;9.21;56.85
40850;BME280;26571;41.610;25.380;2024-02-15T01:08:49;98553.50;;;9.19;56.90
40850;BME280;26571;41.610;25.380;2024-02-15T01:11:15;98556.00;;;9.20;57.22
40850;BME280;26571;41.610;25.380;2024-02-15T01:13:40;98544.81;;;9.18;56.65
40850;BME280;26571;41.610;25.380;2024-02-15T01:16:07;98549.75;;;9.21;56.52
40850;BME280;26571;41.610;25.380;2024-02-15T01:18:32;98552.03;;;9.16;56.72
40850;BME280;26571;41.610;25.380;2024-02-15T01:20:58;98554.19;;;9.21;56.54
40850;BME280;26571;41.610;25.380;2024-02-15T01:23:24;98537.09;;;9.17;56.88
40850;BME280;26571;41.610;25.380;2024-02-15T01:25:50;98546.78;;;9.16;56.58
40850;BME280;26571;41.610;25.380;2024-02-15T01:28:16;98531.28;;;9.05;57.15
40850;BME280;26571;41.610;25.380;2024-02-15T01:30:41;98544.97;;;9.17;56.84
40850;BME280;26571;41.610;25.380;2024-02-15T01:33:09;98545.59;;;9.11;57.11
40850;BME280;26571;41.610;25.380;2024-02-15T01:35:36;98543.47;;;9.14;56.68
40850;BME280;26571;41.610;25.380;2024-02-15T01:38:02;98541.78;;;9.05;56.47
40850;BME280;26571;41.610;25.380;2024-02-15T01:40:27;98553.94;;;9.06;57.24
40850;BME280;26571;41.610;25.380;2024-02-15T01:42:53;98551.66;;;9.11;57.71
40850;BME280;26571;41.610;25.380;2024-02-15T01:45:18;98554.41;;;9.10;57.15
40850;BME280;26571;41.610;25.380;2024-02-15T01:47:44;98550.03;;;9.10;57.13
40850;BME280;26571;41.610;25.380;2024-02-15T01:50:11;98564.09;;;9.09;56.82
40850;BME280;26571;41.610;25.380;2024-02-15T01:52:37;98562.47;;;9.08;57.71
40850;BME280;26571;41.610;25.380;2024-02-15T01:55:05;98553.59;;;9.09;57.16
40850;BME280;26571;41.610;25.380;2024-02-15T01:57:36;98550.63;;;9.04;57.59
40850;BME280;26571;41.610;25.380;2024-02-15T02:00:06;98539.09;;;8.97;57.18
40850;BME280;26571;41.610;25.380;2024-02-15T02:02:34;98551.97;;;9.08;57.86
40850;BME280;26571;41.610;25.380;2024-02-15T02:05:01;98556.44;;;9.16;56.82
40850;BME280;26571;41.610;25.380;2024-02-15T02:07:27;98560.19;;;9.13;57.10
40850;BME280;26571;41.610;25.380;2024-02-15T02:09:53;98552.28;;;9.05;57.45
40850;BME280;26571;41.610;25.380;2024-02-15T02:12:19;98561.84;;;9.14;57.67
40850;BME280;26571;41.610;25.380;2024-02-15T02:14:44;98553.75;;;9.07;57.50
40850;BME280;26571;41.610;25.380;2024-02-15T02:17:13;98564.09;;;9.09;57.64
40850;BME280;26571;41.610;25.380;2024-02-15T02:19:39;98544.97;;;8.91;57.87
40850;BME280;26571;41.610;25.380;2024-02-15T02:22:05;98554.03;;;8.96;57.80
40850;BME280;26571;41.610;25.380;2024-02-15T02:24:33;98562.78;;;9.05;58.12
40850;BME280;26571;41.610;25.380;2024-02-15T02:27:05;98568.63;;;8.99;57.69
40850;BME280;26571;41.610;25.380;2024-02-15T02:29:33;98554.41;;;8.84;58.38
40850;BME280;26571;41.610;25.380;2024-02-15T02:31:59;98566.78;;;8.91;57.97
40850;BME280;26571;41.610;25.380;2024-02-15T02:34:25;98579.09;;;8.91;58.48
40850;BME280;26571;41.610;25.380;2024-02-15T02:36:51;98573.84;;;8.91;58.94
40850;BME280;26571;41.610;25.380;2024-02-15T02:39:16;98579.53;;;8.86;58.48
40850;BME280;26571;41.610;25.380;2024-02-15T02:41:42;98572.19;;;8.72;59.55
40850;BME280;26571;41.610;25.380;2024-02-15T02:44:08;98580.06;;;8.72;60.33
40850;BME280;26571;41.610;25.380;2024-02-15T02:46:34;98580.22;;;8.70;61.20
40850;BME280;26571;41.610;25.380;2024-02-15T02:49:00;98582.03;;;8.52;62.29
40850;BME280;26571;41.610;25.380;2024-02-15T02:51:26;98586.34;;;8.43;63.60
40850;BME280;26571;41.610;25.380;2024-02-15T02:53:51;98587.09;;;8.36;64.03
40850;BME280;26571;41.610;25.380;2024-02-15T02:56:17;98583.38;;;8.28;64.26
40850;BME280;26571;41.610;25.380;2024-02-15T02:58:43;98590.28;;;8.29;64.98
40850;BME280;26571;41.610;25.380;2024-02-15T03:01:10;98587.94;;;8.36;65.21
40850;BME280;26571;41.610;25.380;2024-02-15T03:03:36;98593.03;;;8.38;64.88
40850;BME280;26571;41.610;25.380;2024-02-15T03:06:03;98585.16;;;8.38;65.44
40850;BME280;26571;41.610;25.380;2024-02-15T03:08:30;98577.47;;;8.26;65.16
40850;BME280;26571;41.610;25.380;2024-02-15T03:10:55;98596.22;;;8.32;64.32
40850;BME280;26571;41.610;25.380;2024-02-15T03:13:22;98599.63;;;8.14;64.66
40850;BME280;26571;41.610;25.380;2024-02-15T03:15:48;98596.16;;;7.96;65.71
40850;BME280;26571;41.610;25.380;2024-02-15T03:18:17;98599.31;;;7.90;66.14
40850;BME280;26571;41.610;25.380;2024-02-15T03:20:43;98571.13;;;7.74;67.00
40850;BME280;26571;41.610;25.380;2024-02-15T03:23:08;98591.47;;;7.90;66.79
40850;BME280;26571;41.610;25.380;2024-02-15T03:25:34;98584.63;;;7.79;66.62
40850;BME280;26571;41.610;25.380;2024-02-15T03:28:00;98599.31;;;7.90;66.71
40850;BME280;26571;41.610;25.380;2024-02-15T03:30:30;98589.53;;;7.92;67.18
40850;BME280;26571;41.610;25.380;2024-02-15T03:32:59;98591.91;;;7.85;66.84
40850;BME280;26571;41.610;25.380;2024-02-15T03:35:25;98585.75;;;7.76;67.17
40850;BME280;26571;41.610;25.380;2024-02-15T03:37:52;98598.41;;;7.81;67.48
40850;BME280;26571;41.610;25.380;2024-02-15T03:40:22;98589.03;;;7.78;67.93
40850;BME280;26571;41.610;25.380;2024-02-15T03:42:48;98587.97;;;7.71;68.17
40850;BME280;26571;41.610;25.380;2024-02-15T03:45:15;98575.03;;;7.60;67.82
40850;BME280;26571;41.610;25.380;2024-02-15T03:47:41;98541.94;;;7.32;68.37
40850;BME280;26571;41.610;25.380;2024-02-15T03:50:07;98583.59;;;7.62;67.97
40850;BME280;26571;41.610;25.380;2024-02-15T03:52:35;98535.22;;;7.19;68.15
40850;BME280;26571;41.610;25.380;2024-02-15T03:55:01;98565.72;;;7.48;68.24
40850;BME280;26571;41.610;25.380;2024-02-15T03:57:28;98581.38;;;7.67;68.73
40850;BME280;26571;41.610;25.380;2024-02-15T03:59:54;98591.53;;;7.70;69.53
40850;BME280;26571;41.610;25.380;2024-02-15T04:02:23;98579.72;;;7.66;68.80
40850;BME280;26571;41.610;25.380;2024-02-15T04:04:54;98594.28;;;7.78;68.30
40850;BME280;26571;41.610;25.380;2024-02-15T04:07:21;98596.91;;;7.78;68.90
40850;BME280;26571;41.610;25.380;2024-02-15T04:09:47;98583.56;;;7.72;67.60
40850;BME280;26571;41.610;25.380;2024-02-15T04:12:13;98591.53;;;7.70;68.68
40850;BME280;26571;41.610;25.380;2024-02-15T04:14:40;98595.06;;;7.61;68.92
40850;BME280;26571;41.610;25.380;2024-02-15T04:17:06;98596.31;;;7.57;69.84
40850;BME280;26571;41.610;25.380;2024-02-15T04:19:32;98589.41;;;7.56;69.38
40850;BME280;26571;41.610;25.380;2024-02-15T04:21:58;98591.34;;;7.54;69.51
40850;BME280;26571;41.610;25.380;2024-02-15T04:24:26;98591.88;;;7.58;70.00
40850;BME280;26571;41.610;25.380;2024-02-15T04:26:51;98593.56;;;7.49;69.43
40850;BME280;26571;41.610;25.380;2024-02-15T04:29:17;98598.00;;;7.39;70.97
40850;BME280;26571;41.610;25.380;2024-02-15T04:31:46;98590.53;;;7.44;71.96
40850;BME280;26571;41.610;25.380;2024-02-15T04:34:18;98602.78;;;7.53;69.76
40850;BME280;26571;41.610;25.380;2024-02-15T04:36:46;98597.69;;;7.51;70.58
40850;BME280;26571;41.610;25.380;2024-02-15T04:39:15;98612.06;;;7.38;70.26
40850;BME280;26571;41.610;25.380;2024-02-15T04:41:52;98598.22;;;7.55;70.65
40850;BME280;26571;41.610;25.380;2024-02-15T04:44:18;98600.00;;;7.55;70.04
40850;BME280;26571;41.610;25.380;2024-02-15T04:46:45;98599.19;;;7.54;70.63
40850;BME280;26571;41.610;25.380;2024-02-15T04:49:11;98590.00;;;7.40;70.94
40850;BME280;26571;41.610;25.380;2024-02-15T04:51:36;98572.13;;;7.26;71.92
40850;BME280;26571;41.610;25.380;2024-02-15T04:54:02;98607.63;;;7.48;71.33
40850;BME280;26571;41.610;25.380;2024-02-15T04:56:27;98608.44;;;7.58;71.63
40850;BME280;26571;41.610;25.380;2024-02-15T04:58:53;98607.59;;;7.58;71.62
40850;BME280;26571;41.610;25.380;2024-02-15T05:01:19;98614.25;;;7.52;70.09
40850;BME280;26571;41.610;25.380;2024-02-15T05:03:44;98610.69;;;7.34;71.90
40850;BME280;26571;41.610;25.380;2024-02-15T05:06:10;98612.06;;;7.38;71.81
40850;BME280;26571;41.610;25.380;2024-02-15T05:08:38;98607.09;;;7.35;70.95
40850;BME280;26571;41.610;25.380;2024-02-15T05:11:11;98618.38;;;7.45;71.36
40850;BME280;26571;41.610;25.380;2024-02-15T05:13:46;98602.00;;;7.33;71.49
40850;BME280;26571;41.610;25.380;2024-02-15T05:16:14;98608.50;;;7.29;71.30
40850;BME280;26571;41.610;25.380;2024-02-15T05:18:41;98634.25;;;7.34;72.01
40850;BME280;26571;41.610;25.380;2024-02-15T05:21:07;98635.38;;;7.31;71.99
40850;BME280;26571;41.610;25.380;2024-02-15T05:23:38;98618.44;;;7.16;73.03
40850;BME280;26571;41.610;25.380;2024-02-15T05:26:08;98628.06;;;7.15;72.71
40850;BME280;26571;41.610;25.380;2024-02-15T05:28:34;98645.72;;;7.23;73.19
40850;BME280;26571;41.610;25.380;2024-02-15T05:31:17;98650.69;;;7.16;72.75
40850;BME280;26571;41.610;25.380;2024-02-15T05:33:46;98651.22;;;7.10;73.27
40850;BME280;26571;41.610;25.380;2024-02-15T05:36:20;98663.63;;;6.89;74.23
40850;BME280;26571;41.610;25.380;2024-02-15T05:38:50;98666.94;;;6.81;74.71
40850;BME280;26571;41.610;25.380;2024-02-15T05:41:16;98643.94;;;6.65;75.23
40850;BME280;26571;41.610;25.380;2024-02-15T05:43:42;98657.28;;;6.62;75.38
40850;BME280;26571;41.610;25.380;2024-02-15T05:46:09;98666.81;;;6.83;76.22
40850;BME280;26571;41.610;25.380;2024-02-15T05:48:35;98670.94;;;7.14;75.82
40850;BME280;26571;41.610;25.380;2024-02-15T05:51:02;98674.38;;;7.24;73.90
40850;BME280;26571;41.610;25.380;2024-02-15T05:53:29;98674.66;;;7.31;73.60
40850;BME280;26571;41.610;25.380;2024-02-15T05:55:55;98684.69;;;7.36;73.34
40850;BME280;26571;41.610;25.380;2024-02-15T05:58:26;98682.63;;;7.39;72.85
40850;BME280;26571;41.610;25.380;2024-02-15T06:00:51;98677.69;;;7.46;72.41
40850;BME280;26571;41.610;25.380;2024-02-15T06:03:18;98685.94;;;7.51;71.59
40850;BME280;26571;41.610;25.380;2024-02-15T06:05:47;98685.88;;;7.61;70.62
40850;BME280;26571;41.610;25.380;2024-02-15T06:08:13;98689.06;;;7.64;70.85
40850;BME280;26571;41.610;25.380;2024-02-15T06:10:39;98697.06;;;7.72;71.28
40850;BME280;26571;41.610;25.380;2024-02-15T06:13:05;98686.44;;;7.74;69.34
40850;BME280;26571;41.610;25.380;2024-02-15T06:15:31;98694.63;;;7.98;66.84
40850;BME280;26571;41.610;25.380;2024-02-15T06:17:57;98706.06;;;8.07;65.35
40850;BME280;26571;41.610;25.380;2024-02-15T06:20:22;98669.25;;;7.99;65.01
40850;BME280;26571;41.610;25.380;2024-02-15T06:22:48;98708.31;;;8.29;65.11
40850;BME280;26571;41.610;25.380;2024-02-15T06:25:14;98694.25;;;8.31;62.62
40850;BME280;26571;41.610;25.380;2024-02-15T06:27:45;98709.88;;;8.50;62.36
40850;BME280;26571;41.610;25.380;2024-02-15T06:30:12;98712.84;;;8.65;62.50
40850;BME280;26571;41.610;25.380;2024-02-15T06:32:59;98708.31;;;8.85;62.18
40850;BME280;26571;41.610;25.380;2024-02-15T06:35:43;98709.06;;;8.95;60.74
40850;BME280;26571;41.610;25.380;2024-02-15T06:38:27;98707.59;;;9.10;60.40
40850;BME280;26571;41.610;25.380;2024-02-15T06:41:12;98679.06;;;9.15;59.14
40850;BME280;26571;41.610;25.380;2024-02-15T06:43:37;98705.59;;;9.48;59.55
40850;BME280;26571;41.610;25.380;2024-02-15T06:46:08;98710.97;;;9.64;58.58
40850;BME280;26571;41.610;25.380;2024-02-15T06:48:34;98715.28;;;9.91;58.24
40850;BME280;26571;41.610;25.380;2024-02-15T06:51:00;98718.00;;;10.07;56.28
40850;BME280;26571;41.610;25.380;2024-02-15T06:53:26;98715.91;;;10.19;55.50
40850;BME280;26571;41.610;25.380;2024-02-15T06:55:51;98715.09;;;10.45;54.98
40850;BME280;26571;41.610;25.380;2024-02-15T06:58:17;98700.16;;;10.61;54.25
40850;BME280;26571;41.610;25.380;2024-02-15T07:00:47;98724.47;;;11.06;52.85
40850;BME280;26571;41.610;25.380;2024-02-15T07:03:13;98724.34;;;11.48;52.51
40850;BME280;26571;41.610;25.380;2024-02-15T07:05:39;98732.00;;;13.02;50.47
40850;BME280;26571;41.610;25.380;2024-02-15T07:08:07;98721.97;;;14.78;44.00
40850;BME280;26571;41.610;25.380;2024-02-15T07:10:37;98707.19;;;15.97;41.11
40850;BME280;26571;41.610;25.380;2024-02-15T07:13:04;98700.16;;;16.65;39.04
40850;BME280;26571;41.610;25.380;2024-02-15T07:15:29;98716.75;;;17.35;38.12
40850;BME280;26571;41.610;25.380;2024-02-15T07:17:58;98719.22;;;18.23;35.96
40850;BME280;26571;41.610;25.380;2024-02-15T07:20:24;98709.47;;;19.38;33.96
40850;BME280;26571;41.610;25.380;2024-02-15T07:22:51;98712.31;;;19.75;32.31
40850;BME280;26571;41.610;25.380;2024-02-15T07:25:16;98701.00;;;19.98;31.30
40850;BME280;26571;41.610;25.380;2024-02-15T07:27:43;98720.84;;;19.27;31.45
40850;BME280;26571;41.610;25.380;2024-02-15T07:30:08;98724.50;;;18.43;32.99
40850;BME280;26571;41.610;25.380;2024-02-15T07:32:34;98721.88;;;17.43;33.64
40850;BME280;26571;41.610;25.380;2024-02-15T07:35:01;98723.50;;;16.70;35.40
40850;BME280;26571;41.610;25.380;2024-02-15T07:37:26;98724.06;;;17.07;34.99
40850;BME280;26571;41.610;25.380;2024-02-15T07:39:55;98727.22;;;17.70;33.96
40850;BME280;26571;41.610;25.380;2024-02-15T07:42:20;98718.84;;;18.06;33.31
40850;BME280;26571;41.610;25.380;2024-02-15T07:44:51;98706.91;;;18.22;33.09
40850;BME280;26571;41.610;25.380;2024-02-15T07:47:18;98725.31;;;19.33;31.62
40850;BME280;26571;41.610;25.380;2024-02-15T07:49:46;98710.94;;;20.34;30.27
40850;BME280;26571;41.610;25.380;2024-02-15T07:52:11;98718.78;;;21.32;29.13
40850;BME280;26571;41.610;25.380;2024-02-15T07:54:39;98727.25;;;21.71;27.83
40850;BME280;26571;41.610;25.380;2024-02-15T07:57:04;98703.16;;;21.94;27.82
40850;BME280;26571;41.610;25.380;2024-02-15T07:59:30;98706.31;;;22.38;26.93
40850;BME280;26571;41.610;25.380;2024-02-15T08:01:55;98703.13;;;22.53;26.68
40850;BME280;26571;41.610;25.380;2024-02-15T08:04:21;98648.97;;;21.81;26.72
40850;BME280;26571;41.610;25.380;2024-02-15T08:06:48;98701.19;;;22.25;26.47
40850;BME280;26571;41.610;25.380;2024-02-15T08:09:15;98698.84;;;22.05;26.74
40850;BME280;26571;41.610;25.380;2024-02-15T08:11:43;98696.41;;;22.15;27.04
40850;BME280;26571;41.610;25.380;2024-02-15T08:14:09;98695.69;;;22.72;26.99
40850;BME280;26571;41.610;25.380;2024-02-15T08:16:37;98648.81;;;22.23;26.69
40850;BME280;26571;41.610;25.380;2024-02-15T08:19:06;98694.28;;;22.53;26.86
40850;BME280;26571;41.610;25.380;2024-02-15T08:21:33;98688.22;;;22.34;26.73
40850;BME280;26571;41.610;25.380;2024-02-15T08:24:01;98691.03;;;22.15;26.90
40850;BME280;26571;41.610;25.380;2024-02-15T08:26:36;98680.88;;;21.71;27.27
40850;BME280;26571;41.610;25.380;2024-02-15T08:29:03;98694.13;;;21.12;27.93
40850;BME280;26571;41.610;25.380;2024-02-15T08:31:29;98703.19;;;20.81;29.07
40850;BME280;26571;41.610;25.380;2024-02-15T08:33:56;98675.25;;;19.85;29.81
40850;BME280;26571;41.610;25.380;2024-02-15T08:36:22;98691.91;;;19.24;30.59
40850;BME280;26571;41.610;25.380;2024-02-15T08:38:49;98690.50;;;18.25;31.81
40850;BME280;26571;41.610;25.380;2024-02-15T08:41:15;98682.78;;;17.97;32.23
40850;BME280;26571;41.610;25.380;2024-02-15T08:43:43;98689.53;;;17.99;33.33
40850;BME280;26571;41.610;25.380;2024-02-15T08:46:08;98692.00;;;17.68;33.61
40850;BME280;26571;41.610;25.380;2024-02-15T08:48:35;98691.63;;;17.91;33.94
40850;BME280;26571;41.610;25.380;2024-02-15T08:51:01;98671.88;;;18.05;33.70
40850;BME280;26571;41.610;25.380;2024-02-15T08:53:27;98685.56;;;18.35;33.63
40850;BME280;26571;41.610;25.380;2024-02-15T08:55:52;98693.03;;;18.65;33.38
40850;BME280;26571;41.610;25.380;2024-02-15T08:58:19;98690.63;;;19.01;32.78
40850;BME280;26571;41.610;25.380;2024-02-15T09:00:44;98668.72;;;19.24;32.39
40850;BME280;26571;41.610;25.380;2024-02-15T09:03:13;98675.44;;;19.58;32.03
40850;BME280;26571;41.610;25.380;2024-02-15T09:05:40;98687.59;;;20.04;31.45
40850;BME280;26571;41.610;25.380;2024-02-15T09:08:08;98672.22;;;20.00;31.53
40850;BME280;26571;41.610;25.380;2024-02-15T09:10:34;98675.41;;;19.90;31.30
40850;BME280;26571;41.610;25.380;2024-02-15T09:13:01;98686.97;;;20.02;31.56
40850;BME280;26571;41.610;25.380;2024-02-15T09:15:27;98673.22;;;19.55;31.12
40850;BME280;26571;41.610;25.380;2024-02-15T09:17:56;98686.63;;;18.79;32.06
40850;BME280;26571;41.610;25.380;2024-02-15T09:20:23;98681.69;;;18.31;33.41
40850;BME280;26571;41.610;25.380;2024-02-15T09:22:53;98662.31;;;17.38;34.30
40850;BME280;26571;41.610;25.380;2024-02-15T09:25:20;98658.53;;;16.72;34.88
40850;BME280;26571;41.610;25.380;2024-02-15T09:27:50;98691.03;;;16.33;35.93
40850;BME280;26571;41.610;25.380;2024-02-15T09:30:16;98678.94;;;15.89;36.21
40850;BME280;26571;41.610;25.380;2024-02-15T09:32:43;98692.47;;;15.66;37.81
40850;BME280;26571;41.610;25.380;2024-02-15T09:35:10;98681.00;;;15.44;37.43
40850;BME280;26571;41.610;25.380;2024-02-15T09:37:47;98676.34;;;15.46;38.07
40850;BME280;26571;41.610;25.380;2024-02-15T09:40:16;98679.22;;;15.73;38.67
40850;BME280;26571;41.610;25.380;2024-02-15T09:42:47;98671.50;;;15.78;37.64
40850;BME280;26571;41.610;25.380;2024-02-15T09:45:13;98656.06;;;15.88;37.45
40850;BME280;26571;41.610;25.380;2024-02-15T09:47:40;98670.72;;;16.19;37.21
40850;BME280;26571;41.610;25.380;2024-02-15T09:50:06;98674.72;;;16.36;37.01
40850;BME280;26571;41.610;25.380;2024-02-15T09:52:32;98670.53;;;16.62;36.91
40850;BME280;26571;41.610;25.380;2024-02-15T09:55:03;98661.97;;;16.66;35.96
40850;BME280;26571;41.610;25.380;2024-02-15T09:57:29;98662.88;;;16.93;37.14
40850;BME280;26571;41.610;25.380;2024-02-15T09:59:57;98665.75;;;16.98;35.76
40850;BME280;26571;41.610;25.380;2024-02-15T10:02:24;98654.13;;;16.51;35.89
40850;BME280;26571;41.610;25.380;2024-02-15T10:04:52;98666.50;;;16.31;36.21
40850;BME280;26571;41.610;25.380;2024-02-15T10:07:22;98654.66;;;16.34;37.16
40850;BME280;26571;41.610;25.380;2024-02-15T10:09:47;98657.56;;;16.04;37.04
40850;BME280;26571;41.610;25.380;2024-02-15T10:12:13;98645.44;;;15.88;37.50
40850;BME280;26571;41.610;25.380;2024-02-15T10:14:38;98660.72;;;15.86;38.95
40850;BME280;26571;41.610;25.380;2024-02-15T10:17:12;98652.66;;;15.66;38.53
40850;BME280;26571;41.610;25.380;2024-02-15T10:19:38;98624.03;;;15.40;38.59
40850;BME280;26571;41.610;25.380;2024-02-15T10:22:08;98644.00;;;15.36;40.15
40850;BME280;26571;41.610;25.380;2024-02-15T10:24:34;98638.34;;;15.18;38.91
40850;BME280;26571;41.610;25.380;2024-02-15T10:27:01;98646.78;;;14.85;39.76
40850;BME280;26571;41.610;25.380;2024-02-15T10:29:32;98627.25;;;14.50;40.68
40850;BME280;26571;41.610;25.380;2024-02-15T10:32:00;98635.81;;;14.88;39.87
40850;BME280;26571;41.610;25.380;2024-02-15T10:34:25;98627.97;;;15.02;39.64
40850;BME280;26571;41.610;25.380;2024-02-15T10:36:55;98632.94;;;14.83;39.98
40850;BME280;26571;41.610;25.380;2024-02-15T10:39:35;98632.44;;;14.58;40.76
40850;BME280;26571;41.610;25.380;2024-02-15T10:42:00;98627.53;;;14.40;40.72
40850;BME280;26571;41.610;25.380;2024-02-15T10:44:26;98642.00;;;14.23;41.09
40850;BME280;26571;41.610;25.380;2024-02-15T10:46:53;98635.97;;;14.14;42.48
40850;BME280;26571;41.610;25.380;2024-02-15T10:49:24;98631.38;;;14.38;41.40
40850;BME280;26571;41.610;25.380;2024-02-15T10:51:57;98629.91;;;14.35;41.58
40850;BME280;26571;41.610;25.380;2024-02-15T10:57:05;98603.16;;;14.30;41.21
40850;BME280;26571;41.610;25.380;2024-02-15T10:59:35;98636.50;;;14.10;40.84
40850;BME280;26571;41.610;25.380;2024-02-15T11:02:27;98629.84;;;13.84;41.65
40850;BME280;26571;41.610;25.380;2024-02-15T11:04:58;98632.31;;;13.71;43.18
40850;BME280;26571;41.610;25.380;2024-02-15T11:07:27;98620.13;;;13.47;43.07
40850;BME280;26571;41.610;25.380;2024-02-15T11:09:54;98631.81;;;13.15;44.44
40850;BME280;26571;41.610;25.380;2024-02-15T11:12:24;98611.34;;;12.94;43.77
40850;BME280;26571;41.610;25.380;2024-02-15T11:14:53;98625.66;;;13.00;44.30
40850;BME280;26571;41.610;25.380;2024-02-15T11:20:09;98644.16;;;13.23;43.44
40850;BME280;26571;41.610;25.380;2024-02-15T11:22:37;98614.38;;;13.06;43.51
40850;BME280;26571;41.610;25.380;2024-02-15T11:25:03;98620.22;;;13.16;45.20
40850;BME280;26571;41.610;25.380;2024-02-15T11:27:35;98596.53;;;13.08;45.08
40850;BME280;26571;41.610;25.380;2024-02-15T11:30:03;98614.31;;;13.14;44.38
40850;BME280;26571;41.610;25.380;2024-02-15T11:35:18;98625.41;;;12.86;44.76
40850;BME280;26571;41.610;25.380;2024-02-15T11:37:49;98615.88;;;12.77;43.56
40850;BME280;26571;41.610;25.380;2024-02-15T11:40:25;98611.03;;;12.66;44.92
40850;BME280;26571;41.610;25.380;2024-02-15T11:42:57;98623.25;;;12.36;44.90
40850;BME280;26571;41.610;25.380;2024-02-15T11:45:24;98607.13;;;12.23;45.95
40850;BME280;26571;41.610;25.380;2024-02-15T11:47:52;98615.97;;;12.38;46.79
40850;BME280;26571;41.610;25.380;2024-02-15T11:50:19;98593.69;;;12.40;46.35
40850;BME280;26571;41.610;25.380;2024-02-15T11:52:46;98616.31;;;12.66;47.07
40850;BME280;26571;41.610;25.380;2024-02-15T11:55:18;98602.16;;;12.82;45.44
40850;BME280;26571;41.610;25.380;2024-02-15T11:58:00;98601.09;;;12.45;45.91
40850;BME280;26571;41.610;25.380;2024-02-15T12:00:30;98607.22;;;12.68;46.63
40850;BME280;26571;41.610;25.380;2024-02-15T12:03:15;98599.94;;;12.93;45.67
40850;BME280;26571;41.610;25.380;2024-02-15T12:06:00;98603.22;;;12.96;45.69
40850;BME280;26571;41.610;25.380;2024-02-15T12:08:48;98605.81;;;13.04;46.44
40850;BME280;26571;41.610;25.380;2024-02-15T12:11:32;98603.69;;;12.99;45.97
40850;BME280;26571;41.610;25.380;2024-02-15T12:14:17;98580.69;;;12.85;46.03
40850;BME280;26571;41.610;25.380;2024-02-15T12:17:11;98606.00;;;12.79;45.22
40850;BME280;26571;41.610;25.380;2024-02-15T12:19:59;98615.81;;;12.39;46.47
40850;BME280;26571;41.610;25.380;2024-02-15T12:24:59;98604.75;;;12.05;48.30
40850;BME280;26571;41.610;25.380;2024-02-15T12:27:31;98594.13;;;11.82;48.87
40850;BME280;26571;41.610;25.380;2024-02-15T12:29:57;98599.91;;;11.69;49.32
40850;BME280;26571;41.610;25.380;2024-02-15T12:32:24;98605.47;;;11.82;49.24
40850;BME280;26571;41.610;25.380;2024-02-15T12:34:51;98588.31;;;12.26;48.89
40850;BME280;26571;41.610;25.380;2024-02-15T12:37:20;98598.22;;;12.78;47.18
40850;BME280;26571;41.610;25.380;2024-02-15T12:39:47;98591.88;;;12.87;47.65
40850;BME280;26571;41.610;25.380;2024-02-15T12:42:14;98590.00;;;13.18;46.92
40850;BME280;26571;41.610;25.380;2024-02-15T12:44:48;98594.88;;;13.30;46.72
40850;BME280;26571;41.610;25.380;2024-02-15T12:47:21;98595.34;;;13.33;46.26
40850;BME280;26571;41.610;25.380;2024-02-15T12:49:50;98592.81;;;13.55;45.50
40850;BME280;26571;41.610;25.380;2024-02-15T12:52:38;98593.63;;;13.70;44.91
40850;BME280;26571;41.610;25.380;2024-02-15T12:55:23;98592.59;;;13.41;45.30
40850;BME280;26571;41.610;25.380;2024-02-15T12:57:53;98577.81;;;13.32;45.72
40850;BME280;26571;41.610;25.380;2024-02-15T13:00:21;98602.25;;;13.34;44.30
40850;BME280;26571;41.610;25.380;2024-02-15T13:02:49;98598.31;;;13.30;45.58
40850;BME280;26571;41.610;25.380;2024-02-15T13:05:16;98590.16;;;13.17;45.15
40850;BME280;26571;41.610;25.380;2024-02-15T13:07:45;98589.63;;;12.84;45.72
40850;BME280;26571;41.610;25.380;2024-02-15T13:10:11;98604.25;;;12.40;46.17